createdAt,value
2019-06-20T00:00:42.748Z,25.60
2019-06-20T00:03:12.987Z,25.60
2019-06-20T00:05:43.301Z,25.60
2019-06-20T00:08:13.782Z,25.50
2019-06-20T00:10:45.909Z,25.40
2019-06-20T00:13:16.536Z,25.40
2019-06-20T00:15:46.658Z,25.30
2019-06-20T00:18:16.988Z,25.30
2019-06-20T00:20:47.352Z,25.40
2019-06-20T00:23:17.643Z,25.40
2019-06-20T00:25:47.766Z,25.30
2019-06-20T00:28:19.527Z,25.20
2019-06-20T00:30:49.650Z,25.10
2019-06-20T00:33:23.047Z,25.00
2019-06-20T00:35:53.683Z,25.00
2019-06-20T00:38:23.805Z,25.00
2019-06-20T00:40:58.841Z,25.00
2019-06-20T00:43:29.070Z,24.90
2019-06-20T00:45:59.190Z,24.90
2019-06-20T00:48:29.414Z,25.00
2019-06-20T00:50:59.742Z,25.00
2019-06-20T00:53:29.968Z,25.00
2019-06-20T00:56:00.197Z,24.90
2019-06-20T00:58:30.521Z,24.90
2019-06-20T01:01:00.746Z,24.90
2019-06-20T01:03:32.507Z,24.80
2019-06-20T01:06:27.254Z,24.90
2019-06-20T01:08:59.161Z,24.90
2019-06-20T01:11:31.124Z,24.90
2019-06-20T01:14:03.275Z,24.90
2019-06-20T01:16:33.536Z,24.80
2019-06-20T01:19:03.827Z,24.70
2019-06-20T01:21:34.047Z,24.80
2019-06-20T01:24:05.472Z,24.80
2019-06-20T01:26:36.169Z,24.80
2019-06-20T01:29:06.582Z,24.80
2019-06-20T01:31:36.791Z,24.80
2019-06-20T01:34:07.092Z,24.90
2019-06-20T01:36:37.375Z,24.90
2019-06-20T01:39:08.666Z,24.90
2019-06-20T01:41:40.515Z,24.80
2019-06-20T01:44:10.931Z,24.80
2019-06-20T01:46:41.256Z,24.70
2019-06-20T01:49:14.338Z,24.60
2019-06-20T01:51:45.852Z,24.70
2019-06-20T01:54:18.838Z,24.40
2019-06-20T01:56:49.119Z,24.40
2019-06-20T01:59:41.936Z,24.50
2019-06-20T02:02:12.234Z,24.50
2019-06-20T02:04:42.621Z,24.50
2019-06-20T02:07:14.902Z,24.50
2019-06-20T02:09:45.430Z,24.50
2019-06-20T02:12:15.805Z,24.40
2019-06-20T02:14:46.169Z,24.30
2019-06-20T02:17:16.398Z,24.20
2019-06-20T02:19:46.749Z,24.20
2019-06-20T02:22:17.047Z,24.30
2019-06-20T02:24:47.392Z,24.30
2019-06-20T02:27:17.741Z,24.40
2019-06-20T02:29:48.041Z,24.40
2019-06-20T02:32:21.430Z,24.30
2019-06-20T02:34:51.832Z,24.30
2019-06-20T02:37:22.154Z,24.30
2019-06-20T02:39:52.494Z,24.30
2019-06-20T02:42:27.067Z,24.30
2019-06-20T02:44:57.458Z,24.20
2019-06-20T02:47:28.248Z,24.20
2019-06-20T02:50:00.150Z,24.20
2019-06-20T02:52:30.532Z,24.10
2019-06-20T02:55:00.949Z,24.00
2019-06-20T02:57:31.360Z,24.10
2019-06-20T03:00:01.888Z,24.10
2019-06-20T03:02:34.465Z,24.00
2019-06-20T03:05:09.455Z,23.90
2019-06-20T03:07:39.876Z,23.90
2019-06-20T03:10:11.519Z,23.90
2019-06-20T03:12:42.154Z,23.90
2019-06-20T03:15:14.555Z,23.80
2019-06-20T03:17:44.825Z,23.80
2019-06-20T03:20:15.157Z,23.70
2019-06-20T03:22:47.130Z,23.70
2019-06-20T03:25:21.050Z,23.80
2019-06-20T03:27:52.890Z,23.70
2019-06-20T03:30:24.995Z,23.70
2019-06-20T03:32:56.813Z,23.70
2019-06-20T03:35:27.322Z,23.70
2019-06-20T03:37:59.367Z,23.80
2019-06-20T03:40:29.999Z,23.70
2019-06-20T03:43:00.528Z,23.60
2019-06-20T03:45:31.164Z,23.60
2019-06-20T03:48:01.590Z,23.50
2019-06-20T03:50:34.368Z,23.60
2019-06-20T03:53:05.003Z,23.50
2019-06-20T03:55:37.069Z,23.50
2019-06-20T03:58:07.699Z,23.50
2019-06-20T04:00:41.605Z,23.60
2019-06-20T04:03:12.033Z,23.60
2019-06-20T04:05:47.701Z,23.60
2019-06-20T04:08:17.979Z,23.70
2019-06-20T04:10:48.092Z,23.70
2019-06-20T04:13:18.283Z,23.70
2019-06-20T04:15:52.858Z,23.70
2019-06-20T04:18:22.963Z,23.70
2019-06-20T04:20:53.000Z,23.70
2019-06-20T04:23:24.878Z,23.70
2019-06-20T04:25:58.059Z,23.70
2019-06-20T04:28:29.470Z,23.70
2019-06-20T04:30:59.652Z,23.70
2019-06-20T04:33:32.781Z,23.70
2019-06-20T04:36:05.789Z,23.70
2019-06-20T04:38:35.933Z,23.80
2019-06-20T04:41:08.819Z,23.70
2019-06-20T04:43:39.048Z,23.80
2019-06-20T04:46:20.120Z,23.80
2019-06-20T04:48:51.060Z,23.80
2019-06-20T04:51:21.285Z,23.80
2019-06-20T04:53:51.510Z,23.90
2019-06-20T04:56:22.661Z,23.90
2019-06-20T04:58:55.954Z,24.00
2019-06-20T05:01:25.359Z,24.00
2019-06-20T05:04:01.418Z,24.10
2019-06-20T05:06:41.179Z,24.20
2019-06-20T05:09:11.181Z,24.20
2019-06-20T05:11:41.834Z,24.20
2019-06-20T05:14:31.486Z,24.20
2019-06-20T05:17:07.002Z,24.20
2019-06-20T05:19:34.293Z,24.30
2019-06-20T05:22:05.311Z,24.30
2019-06-20T05:24:37.195Z,24.40
2019-06-20T05:27:15.755Z,24.40
2019-06-20T05:29:46.037Z,24.50
2019-06-20T05:32:18.112Z,24.60
2019-06-20T05:34:52.004Z,24.70
2019-06-20T05:37:22.240Z,24.70
2019-06-20T05:39:52.364Z,24.70
2019-06-20T05:42:22.593Z,24.90
2019-06-20T05:44:54.352Z,24.90
2019-06-20T05:47:24.474Z,24.80
2019-06-20T05:49:55.015Z,24.90
2019-06-20T05:52:25.435Z,24.90
2019-06-20T05:54:57.742Z,24.90
2019-06-20T05:57:29.264Z,25.00
2019-06-20T06:00:08.373Z,24.90
2019-06-20T06:02:37.927Z,24.90
2019-06-20T06:05:08.141Z,25.00
2019-06-20T06:07:38.250Z,25.00
2019-06-20T06:10:10.216Z,25.00
2019-06-20T06:12:40.442Z,25.10
2019-06-20T06:15:14.350Z,25.10
2019-06-20T06:17:46.215Z,25.10
2019-06-20T06:20:18.178Z,25.20
2019-06-20T06:22:48.393Z,25.20
2019-06-20T06:25:20.985Z,25.20
2019-06-20T06:27:51.107Z,25.30
2019-06-20T06:30:22.769Z,25.40
2019-06-20T06:32:56.195Z,25.50
2019-06-20T06:35:26.388Z,25.50
2019-06-20T06:37:57.229Z,25.50
2019-06-20T06:40:28.378Z,25.60
2019-06-20T06:42:58.807Z,25.60
2019-06-20T06:45:29.133Z,25.60
2019-06-20T06:47:59.359Z,25.60
2019-06-20T06:50:29.791Z,25.60
2019-06-20T06:53:00.026Z,25.70
2019-06-20T06:55:30.135Z,25.80
2019-06-20T06:58:00.373Z,25.90
2019-06-20T07:00:32.415Z,25.80
2019-06-20T07:03:22.129Z,25.80
2019-06-20T07:05:52.450Z,25.80
2019-06-20T07:08:22.854Z,25.90
2019-06-20T07:10:54.675Z,26.00
2019-06-20T07:13:24.976Z,26.10
2019-06-20T07:15:55.280Z,26.10
2019-06-20T07:18:25.586Z,26.20
2019-06-20T07:20:55.898Z,26.20
2019-06-20T07:23:26.306Z,26.30
2019-06-20T07:25:56.528Z,26.40
2019-06-20T07:28:27.236Z,26.50
2019-06-20T07:30:57.554Z,26.50
2019-06-20T07:33:27.952Z,26.60
2019-06-20T07:35:58.245Z,26.70
2019-06-20T07:38:28.534Z,26.70
2019-06-20T07:40:58.856Z,26.80
2019-06-20T07:43:29.619Z,26.80
2019-06-20T07:46:03.026Z,26.70
2019-06-20T07:48:31.976Z,26.80
2019-06-20T07:51:04.528Z,26.80
2019-06-20T07:53:34.838Z,26.80
2019-06-20T07:56:05.085Z,26.90
2019-06-20T07:58:35.400Z,27.00
2019-06-20T08:01:05.838Z,27.10
2019-06-20T08:03:36.208Z,27.10
2019-06-20T08:06:10.738Z,27.20
2019-06-20T08:08:41.033Z,27.20
2019-06-20T08:11:11.458Z,27.40
2019-06-20T08:13:41.796Z,27.40
2019-06-20T08:16:12.215Z,27.40
2019-06-20T08:18:42.555Z,27.50
2019-06-20T08:21:12.800Z,27.60
2019-06-20T08:23:43.137Z,27.70
2019-06-20T08:26:13.508Z,27.70
2019-06-20T08:28:45.310Z,27.90
2019-06-20T08:31:15.549Z,28.00
2019-06-20T08:33:45.795Z,28.10
2019-06-20T08:36:16.093Z,28.10
2019-06-20T08:38:47.895Z,28.00
2019-06-20T08:41:18.195Z,28.00
2019-06-20T08:43:49.025Z,28.10
2019-06-20T08:46:22.126Z,28.20
2019-06-20T08:48:52.577Z,28.20
2019-06-20T08:51:23.089Z,28.40
2019-06-20T08:53:55.730Z,28.50
2019-06-20T08:56:25.542Z,28.50
2019-06-20T08:59:00.579Z,28.60
2019-06-20T09:01:32.052Z,28.60
2019-06-20T09:04:05.634Z,28.70
2019-06-20T09:06:36.123Z,28.90
2019-06-20T09:09:08.087Z,29.00
2019-06-20T09:11:40.055Z,29.00
2019-06-20T09:14:10.456Z,29.00
2019-06-20T09:16:42.700Z,29.30
2019-06-20T09:19:13.836Z,29.30
2019-06-20T09:21:44.822Z,29.30
2019-06-20T09:24:15.662Z,29.40
2019-06-20T09:26:47.735Z,29.50
2019-06-20T09:29:18.047Z,29.40
2019-06-20T09:31:48.953Z,29.50
2019-06-20T09:34:19.750Z,29.70
2019-06-20T09:36:51.988Z,29.80
2019-06-20T09:39:24.399Z,29.90
2019-06-20T09:41:56.577Z,29.90
2019-06-20T09:44:26.999Z,30.00
2019-06-20T09:46:58.222Z,30.10
2019-06-20T09:49:30.156Z,30.00
2019-06-20T09:52:00.539Z,30.00
2019-06-20T09:54:30.887Z,30.00
2019-06-20T09:57:04.329Z,30.10
2019-06-20T09:59:34.579Z,30.20
2019-06-20T10:02:05.246Z,30.30
2019-06-20T10:04:35.551Z,30.30
2019-06-20T10:07:05.850Z,30.40
2019-06-20T10:09:36.679Z,30.70
2019-06-20T10:12:07.075Z,30.90
2019-06-20T10:14:37.365Z,30.70
2019-06-20T10:17:07.636Z,30.60
2019-06-20T10:19:38.351Z,30.80
2019-06-20T10:22:08.677Z,30.80
2019-06-20T10:24:39.070Z,30.90
2019-06-20T10:27:30.231Z,31.10
2019-06-20T10:30:13.513Z,31.10
2019-06-20T10:32:32.521Z,31.00
2019-06-20T10:35:04.223Z,31.00
2019-06-20T10:37:34.594Z,31.00
2019-06-20T10:40:07.799Z,31.20
2019-06-20T10:42:39.234Z,31.40
2019-06-20T10:45:10.491Z,31.50
2019-06-20T10:47:43.574Z,31.40
2019-06-20T10:50:13.339Z,31.50
2019-06-20T10:52:43.731Z,31.60
2019-06-20T10:55:14.593Z,31.60
2019-06-20T10:57:44.917Z,31.80
2019-06-20T11:00:30.871Z,32.00
2019-06-20T11:02:49.045Z,32.10
2019-06-20T11:05:20.682Z,31.80
2019-06-20T11:07:51.232Z,31.90
2019-06-20T11:10:23.685Z,32.10
2019-06-20T11:12:56.453Z,32.30
2019-06-20T11:15:32.345Z,31.90
2019-06-20T11:18:02.756Z,32.00
2019-06-20T11:20:33.167Z,32.10
2019-06-20T11:23:05.026Z,32.10
2019-06-20T11:25:48.287Z,32.00
2019-06-20T11:28:21.233Z,32.00
2019-06-20T11:31:03.342Z,32.10
2019-06-20T11:33:36.663Z,32.10
2019-06-20T11:36:07.582Z,32.30
2019-06-20T11:38:39.029Z,32.40
2019-06-20T11:41:15.057Z,32.40
2019-06-20T11:43:42.223Z,32.50
2019-06-20T11:46:12.816Z,32.60
2019-06-20T11:48:43.122Z,32.60
2019-06-20T11:51:13.420Z,32.60
2019-06-20T11:53:43.669Z,32.70
2019-06-20T11:56:15.920Z,32.70
2019-06-20T11:58:45.943Z,32.90
2019-06-20T12:01:17.283Z,33.00
2019-06-20T12:03:48.918Z,32.90
2019-06-20T12:06:19.510Z,32.80
2019-06-20T12:08:49.853Z,32.90
2019-06-20T12:11:21.954Z,33.00
2019-06-20T12:13:52.257Z,33.30
2019-06-20T12:16:22.705Z,33.60
2019-06-20T12:18:53.131Z,33.50
2019-06-20T12:25:26.202Z,33.80
2019-06-20T12:27:56.132Z,34.40
2019-06-20T12:30:28.213Z,34.80
2019-06-20T12:33:02.131Z,35.10
2019-06-20T12:35:39.529Z,35.10
2019-06-20T12:38:18.122Z,35.30
2019-06-20T12:40:50.553Z,35.50
2019-06-20T12:43:20.900Z,35.80
2019-06-20T12:45:52.566Z,35.90
2019-06-20T12:48:24.367Z,36.10
2019-06-20T12:50:54.889Z,36.40
2019-06-20T12:53:25.100Z,36.40
2019-06-20T12:55:55.309Z,36.20
2019-06-20T12:58:25.610Z,36.60
2019-06-20T13:00:56.383Z,37.10
2019-06-20T13:03:26.733Z,37.30
2019-06-20T13:05:58.043Z,36.50
2019-06-20T13:08:28.344Z,36.60
2019-06-20T13:11:00.096Z,36.80
2019-06-20T13:13:33.093Z,36.90
2019-06-20T13:16:03.446Z,36.70
2019-06-20T13:18:34.822Z,36.90
2019-06-20T13:21:05.192Z,37.10
2019-06-20T13:23:39.759Z,37.60
2019-06-20T13:26:09.741Z,37.80
2019-06-20T13:28:58.944Z,37.60
2019-06-20T13:31:14.901Z,37.50
2019-06-20T13:33:45.195Z,37.60
2019-06-20T13:36:15.942Z,37.30
2019-06-20T13:38:46.716Z,37.00
2019-06-20T13:41:17.058Z,37.20
2019-06-20T13:43:47.460Z,37.30
2019-06-20T13:46:17.828Z,37.10
2019-06-20T13:48:48.147Z,37.30
2019-06-20T13:51:21.157Z,37.50
2019-06-20T13:53:51.608Z,37.80
2019-06-20T13:56:24.970Z,37.30
2019-06-20T13:58:55.342Z,37.10
2019-06-20T14:01:25.665Z,37.10
2019-06-20T14:03:59.041Z,37.00
2019-06-20T14:06:29.264Z,37.30
2019-06-20T14:09:00.109Z,37.60
2019-06-20T14:11:30.470Z,37.70
2019-06-20T14:14:00.806Z,37.50
2019-06-20T14:16:32.296Z,37.50
2019-06-20T14:19:02.559Z,37.10
2019-06-20T14:21:34.888Z,37.00
2019-06-20T14:24:27.124Z,36.30
2019-06-20T14:26:58.481Z,35.90
2019-06-20T14:29:30.093Z,36.10
2019-06-20T14:32:00.474Z,35.70
2019-06-20T14:34:32.263Z,35.40
2019-06-20T14:37:02.917Z,35.50
2019-06-20T14:39:34.201Z,35.70
2019-06-20T14:42:06.066Z,35.90
2019-06-20T14:44:36.449Z,36.00
2019-06-20T14:47:11.134Z,35.80
2019-06-20T14:49:41.628Z,35.50
2019-06-20T14:52:13.362Z,35.40
2019-06-20T14:54:44.527Z,35.20
2019-06-20T14:57:18.303Z,35.00
2019-06-20T14:59:49.866Z,35.00
2019-06-20T15:02:37.235Z,35.10
2019-06-20T15:04:56.855Z,35.00
2019-06-20T15:07:27.307Z,34.80
2019-06-20T15:09:57.672Z,34.80
2019-06-20T15:12:27.984Z,34.70
2019-06-20T15:14:59.318Z,34.70
2019-06-20T15:17:29.637Z,34.60
2019-06-20T15:19:59.930Z,34.70
2019-06-20T15:22:30.169Z,34.80
2019-06-20T15:25:00.404Z,34.90
2019-06-20T15:27:35.000Z,34.90
2019-06-20T15:30:07.681Z,34.60
2019-06-20T15:32:53.311Z,34.30
2019-06-20T15:35:13.116Z,34.40
2019-06-20T15:37:43.792Z,34.50
2019-06-20T15:40:14.316Z,34.50
2019-06-20T15:42:44.957Z,34.30
2019-06-20T15:45:15.548Z,34.40
2019-06-20T15:47:45.859Z,34.20
2019-06-20T15:50:20.421Z,34.10
2019-06-20T15:52:50.728Z,34.00
2019-06-20T15:55:20.995Z,34.00
2019-06-20T15:57:54.229Z,34.00
2019-06-20T16:00:26.508Z,33.80
2019-06-20T16:03:08.900Z,33.60
2019-06-20T16:05:28.733Z,33.60
2019-06-20T16:07:59.113Z,33.50
2019-06-20T16:10:29.525Z,33.30
2019-06-20T16:13:03.142Z,33.40
2019-06-20T16:15:33.839Z,33.40
2019-06-20T16:18:04.635Z,33.30
2019-06-20T16:20:35.048Z,33.20
2019-06-20T16:23:06.512Z,33.30
2019-06-20T16:25:37.031Z,33.20
2019-06-20T16:28:07.329Z,33.20
2019-06-20T16:30:37.610Z,33.20
2019-06-20T16:33:24.750Z,33.10
2019-06-20T16:35:51.685Z,33.20
2019-06-20T16:38:22.098Z,33.20
2019-06-20T16:40:52.500Z,33.10
2019-06-20T16:43:22.778Z,33.20
2019-06-20T16:45:54.230Z,33.10
2019-06-20T16:48:24.699Z,33.10
2019-06-20T16:50:55.071Z,33.20
2019-06-20T16:53:25.386Z,33.30
2019-06-20T16:55:58.695Z,33.20
2019-06-20T16:58:29.030Z,33.20
2019-06-20T17:01:00.685Z,33.20
2019-06-20T17:03:41.242Z,33.00
2019-06-20T17:06:06.358Z,32.90
2019-06-20T17:08:36.654Z,32.90
2019-06-20T17:11:06.934Z,32.80
2019-06-20T17:13:40.235Z,32.70
2019-06-20T17:16:10.760Z,32.60
2019-06-20T17:18:41.122Z,32.60
2019-06-20T17:21:12.662Z,32.60
2019-06-20T17:23:46.219Z,32.70
2019-06-20T17:26:16.529Z,32.70
2019-06-20T17:28:47.085Z,32.60
2019-06-20T17:31:17.453Z,32.60
2019-06-20T17:33:57.146Z,32.60
2019-06-20T17:36:19.924Z,32.60
2019-06-20T17:38:56.194Z,32.60
2019-06-20T17:41:26.555Z,32.40
2019-06-20T17:43:57.079Z,32.40
2019-06-20T17:46:27.350Z,32.40
2019-06-20T17:48:57.792Z,32.40
2019-06-20T17:51:28.059Z,32.30
2019-06-20T17:53:58.272Z,32.20
2019-06-20T17:56:28.730Z,32.20
2019-06-20T17:58:58.970Z,32.20
2019-06-20T18:01:29.264Z,32.20
2019-06-20T18:04:12.889Z,32.30
2019-06-20T18:06:31.494Z,32.20
2019-06-20T18:09:01.854Z,32.10
2019-06-20T18:11:33.718Z,32.10
2019-06-20T18:14:05.612Z,32.00
2019-06-20T18:16:37.610Z,31.90
2019-06-20T18:19:07.909Z,31.90
2019-06-20T18:21:38.223Z,31.80
2019-06-20T18:24:08.620Z,31.60
2019-06-20T18:26:38.922Z,31.60
2019-06-20T18:29:09.170Z,31.40
2019-06-20T18:31:42.293Z,31.30
2019-06-20T18:34:11.384Z,31.20
2019-06-20T18:36:43.553Z,31.10
2019-06-20T18:39:15.065Z,31.10
2019-06-20T18:41:47.432Z,31.10
2019-06-20T18:44:17.267Z,31.00
2019-06-20T18:46:47.497Z,30.90
2019-06-20T18:49:17.847Z,30.80
2019-06-20T18:51:48.171Z,30.70
2019-06-20T18:54:18.539Z,30.70
2019-06-20T18:56:49.353Z,30.60
2019-06-20T18:59:20.045Z,30.50
2019-06-20T19:01:50.442Z,30.30
2019-06-20T19:04:47.724Z,30.20
2019-06-20T19:07:11.868Z,30.20
2019-06-20T19:09:42.188Z,30.20
2019-06-20T19:12:12.431Z,30.10
2019-06-20T19:15:02.060Z,30.20
2019-06-20T19:17:32.340Z,30.10
2019-06-20T19:20:07.051Z,29.80
2019-06-20T19:22:40.095Z,29.90
2019-06-20T19:25:13.051Z,29.80
2019-06-20T19:27:46.683Z,29.70
2019-06-20T19:30:18.241Z,29.70
2019-06-20T19:32:51.372Z,29.70
2019-06-20T19:35:20.855Z,29.70
2019-06-20T19:37:50.968Z,29.50
2019-06-20T19:40:24.310Z,29.40
2019-06-20T19:42:54.636Z,29.40
2019-06-20T19:45:25.307Z,29.30
2019-06-20T19:48:00.039Z,29.30
2019-06-20T19:50:30.386Z,29.20
2019-06-20T19:53:00.666Z,29.20
2019-06-20T19:55:32.476Z,29.10
2019-06-20T19:58:04.277Z,29.10
2019-06-20T20:00:35.021Z,28.90
2019-06-20T20:03:06.253Z,28.90
2019-06-20T20:05:36.565Z,28.90
2019-06-20T20:08:07.613Z,28.80
2019-06-20T20:10:44.105Z,28.80
2019-06-20T20:13:15.405Z,28.80
2019-06-20T20:15:46.560Z,28.70
2019-06-20T20:18:18.670Z,28.70
2019-06-20T20:20:49.060Z,28.70
2019-06-20T20:23:25.385Z,28.60
2019-06-20T20:25:56.038Z,28.50
2019-06-20T20:28:26.532Z,28.40
2019-06-20T20:30:56.753Z,28.40
2019-06-20T20:33:28.145Z,28.40
2019-06-20T20:36:02.097Z,28.40
2019-06-20T20:38:34.955Z,28.30
2019-06-20T20:41:08.477Z,28.20
2019-06-20T20:43:43.027Z,28.20
2019-06-20T20:46:13.415Z,28.10
2019-06-20T20:48:43.879Z,27.90
2019-06-20T20:51:15.258Z,27.90
2019-06-20T20:53:45.839Z,27.90
2019-06-20T20:56:16.141Z,27.80
2019-06-20T20:58:52.682Z,27.80
2019-06-20T21:01:30.873Z,27.80
2019-06-20T21:04:02.558Z,27.80
2019-06-20T21:06:45.138Z,27.80
2019-06-20T21:09:15.279Z,27.80
2019-06-20T21:11:45.503Z,27.70
2019-06-20T21:14:15.730Z,27.70
2019-06-20T21:16:45.954Z,27.70
2019-06-20T21:19:16.184Z,27.70
2019-06-20T21:21:46.408Z,27.70
2019-06-20T21:24:24.307Z,27.60
2019-06-20T21:27:00.368Z,27.60
2019-06-20T21:29:50.061Z,27.40
2019-06-20T21:32:20.657Z,27.40
2019-06-20T21:34:50.938Z,27.40
2019-06-20T21:37:21.184Z,27.40
2019-06-20T21:39:51.591Z,27.40
2019-06-20T21:42:21.878Z,27.30
2019-06-20T21:44:52.128Z,27.20
2019-06-20T21:47:23.537Z,27.00
2019-06-20T21:49:55.379Z,26.80
2019-06-20T21:52:25.784Z,26.80
2019-06-20T21:54:56.088Z,26.80
2019-06-20T21:57:30.804Z,26.70
2019-06-20T22:00:01.611Z,26.60
2019-06-20T22:02:33.484Z,26.40
2019-06-20T22:05:06.092Z,26.40
2019-06-20T22:07:37.907Z,26.40
2019-06-20T22:10:08.330Z,26.20
2019-06-20T22:12:38.786Z,26.00
2019-06-20T22:15:09.683Z,25.90
2019-06-20T22:17:41.014Z,25.80
2019-06-20T22:20:11.722Z,25.70
2019-06-20T22:22:42.388Z,25.50
2019-06-20T22:25:14.307Z,25.50
2019-06-20T22:27:46.930Z,25.60
2019-06-20T22:30:20.211Z,25.60
2019-06-20T22:32:49.652Z,25.70
2019-06-20T22:35:20.782Z,25.70
2019-06-20T22:37:51.133Z,25.70
2019-06-20T22:40:21.428Z,25.70
2019-06-20T22:42:51.804Z,25.80
2019-06-20T22:45:22.119Z,25.90
2019-06-20T22:47:52.857Z,25.90
2019-06-20T22:50:23.218Z,25.80
2019-06-20T22:52:55.979Z,25.80
2019-06-20T22:55:26.368Z,25.80
2019-06-20T22:57:57.240Z,25.80
2019-06-20T23:00:27.572Z,25.80
2019-06-20T23:03:06.752Z,25.80
2019-06-20T23:05:37.052Z,25.80
2019-06-20T23:08:07.496Z,25.70
2019-06-20T23:10:37.784Z,25.70
2019-06-20T23:13:09.805Z,25.40
2019-06-20T23:15:40.296Z,25.30
2019-06-20T23:18:10.616Z,25.20
2019-06-20T23:21:03.664Z,25.20
2019-06-20T23:23:23.258Z,25.30
2019-06-20T23:25:58.339Z,25.20
2019-06-20T23:28:31.311Z,25.10
2019-06-20T23:31:04.688Z,25.10
2019-06-20T23:33:43.901Z,25.10
2019-06-20T23:36:14.262Z,25.10
2019-06-20T23:38:52.046Z,25.20
2019-06-20T23:44:20.307Z,25.20
2019-06-20T23:49:40.368Z,25.10
2019-06-20T23:52:12.371Z,25.10
2019-06-20T23:54:43.052Z,25.10
2019-06-20T23:57:13.488Z,25.10
2019-06-20T23:59:43.869Z,25.10
